sensor_id;sensor_type;location;lat;lon;timestamp;temperature;humidity
7212;DHT22;3647;48.792;9.802;2024-01-10T05:46:23;-3.20;99.90
7212;DHT22;3647;48.792;9.802;2024-01-10T05:51:17;-3.10;99.90
7212;DHT22;3647;48.792;9.802;2024-01-10T05:53:44;-3.20;99.90
7212;DHT22;3647;48.792;9.802;2024-01-10T06:03:36;-3.20;99.90
7212;DHT22;3647;48.792;9.802;2024-01-10T06:08:31;-3.00;99.90
7212;DHT22;3647;48.792;9.802;2024-01-10T07:15:44;-2.40;99.90
7212;DHT22;3647;48.792;9.802;2024-01-10T07:27:59;-2.50;99.90
7212;DHT22;3647;48.792;9.802;2024-01-10T07:30:26;-2.50;99.90
7212;DHT22;3647;48.792;9.802;2024-01-10T07:32:54;-2.40;99.90
7212;DHT22;3647;48.792;9.802;2024-01-10T07:37:48;-2.30;99.90
7212;DHT22;3647;48.792;9.802;2024-01-10T07:40:15;-2.50;99.90
7212;DHT22;3647;48.792;9.802;2024-01-10T07:42:42;-2.40;99.90
7212;DHT22;3647;48.792;9.802;2024-01-10T07:45:10;-2.30;99.90
7212;DHT22;3647;48.792;9.802;2024-01-10T07:47:38;-2.30;99.90
7212;DHT22;3647;48.792;9.802;2024-01-10T07:50:07;-2.20;99.90
7212;DHT22;3647;48.792;9.802;2024-01-10T07:52:34;-2.00;99.90
7212;DHT22;3647;48.792;9.802;2024-01-10T07:55:01;-2.00;99.90
7212;DHT22;3647;48.792;9.802;2024-01-10T08:02:25;-2.00;99.90
7212;DHT22;3647;48.792;9.802;2024-01-10T08:07:20;-1.90;99.90
7212;DHT22;3647;48.792;9.802;2024-01-10T08:12:15;-1.90;99.90
7212;DHT22;3647;48.792;9.802;2024-01-10T08:14:42;-1.80;99.90
7212;DHT22;3647;48.792;9.802;2024-01-10T08:17:11;-1.70;99.90
7212;DHT22;3647;48.792;9.802;2024-01-10T08:19:38;-1.70;99.90
7212;DHT22;3647;48.792;9.802;2024-01-10T08:22:05;-1.60;99.90
7212;DHT22;3647;48.792;9.802;2024-01-10T08:24:35;-1.60;99.90
7212;DHT22;3647;48.792;9.802;2024-01-10T08:29:29;-1.50;99.90
7212;DHT22;3647;48.792;9.802;2024-01-10T08:36:52;-1.20;99.90
7212;DHT22;3647;48.792;9.802;2024-01-10T08:41:48;-1.00;99.90
7212;DHT22;3647;48.792;9.802;2024-01-10T08:46:42;-0.70;99.90
7212;DHT22;3647;48.792;9.802;2024-01-10T08:49:09;-0.50;99.90
7212;DHT22;3647;48.792;9.802;2024-01-10T08:51:36;-0.50;99.90
7212;DHT22;3647;48.792;9.802;2024-01-10T08:56:30;-0.60;99.90
7212;DHT22;3647;48.792;9.802;2024-01-10T08:58:58;-0.40;99.90
7212;DHT22;3647;48.792;9.802;2024-01-10T09:01:25;-0.20;99.90
7212;DHT22;3647;48.792;9.802;2024-01-10T09:03:51;-0.10;99.90
7212;DHT22;3647;48.792;9.802;2024-01-10T09:06:18;0.10;99.90
7212;DHT22;3647;48.792;9.802;2024-01-10T09:08:46;0.10;99.90
7212;DHT22;3647;48.792;9.802;2024-01-10T09:11:13;0.20;99.90
7212;DHT22;3647;48.792;9.802;2024-01-10T09:13:40;0.20;99.90
7212;DHT22;3647;48.792;9.802;2024-01-10T09:16:08;1.60;99.90
7212;DHT22;3647;48.792;9.802;2024-01-10T09:18:35;0.30;99.90
7212;DHT22;3647;48.792;9.802;2024-01-10T09:21:02;0.30;99.90
7212;DHT22;3647;48.792;9.802;2024-01-10T09:23:30;0.40;99.90
7212;DHT22;3647;48.792;9.802;2024-01-10T09:25:56;0.30;99.90
7212;DHT22;3647;48.792;9.802;2024-01-10T09:28:23;0.40;99.90
7212;DHT22;3647;48.792;9.802;2024-01-10T09:30:51;0.40;99.90
7212;DHT22;3647;48.792;9.802;2024-01-10T09:33:21;1.60;99.90
7212;DHT22;3647;48.792;9.802;2024-01-10T09:35:48;0.30;99.90
7212;DHT22;3647;48.792;9.802;2024-01-10T09:38:15;0.30;99.90
7212;DHT22;3647;48.792;9.802;2024-01-10T09:40:42;0.30;99.90
7212;DHT22;3647;48.792;9.802;2024-01-10T09:43:10;0.40;99.90
7212;DHT22;3647;48.792;9.802;2024-01-10T09:45:43;0.40;99.90
7212;DHT22;3647;48.792;9.802;2024-01-10T09:48:13;1.70;99.90
7212;DHT22;3647;48.792;9.802;2024-01-10T09:50:42;0.10;99.90
7212;DHT22;3647;48.792;9.802;2024-01-10T09:53:15;0.20;99.90
7212;DHT22;3647;48.792;9.802;2024-01-10T09:55:45;0.20;99.90
7212;DHT22;3647;48.792;9.802;2024-01-10T09:58:11;0.20;99.90
7212;DHT22;3647;48.792;9.802;2024-01-10T10:00:39;0.10;99.90
7212;DHT22;3647;48.792;9.802;2024-01-10T10:03:07;0.10;99.90
7212;DHT22;3647;48.792;9.802;2024-01-10T10:05:36;0.20;99.90
7212;DHT22;3647;48.792;9.802;2024-01-10T10:08:07;0.10;99.90
7212;DHT22;3647;48.792;9.802;2024-01-10T10:10:35;2.10;99.90
7212;DHT22;3647;48.792;9.802;2024-01-10T10:13:02;0.30;99.90
7212;DHT22;3647;48.792;9.802;2024-01-10T10:15:29;0.30;99.90
7212;DHT22;3647;48.792;9.802;2024-01-10T10:17:56;0.40;99.90
7212;DHT22;3647;48.792;9.802;2024-01-10T10:20:23;0.50;99.90
7212;DHT22;3647;48.792;9.802;2024-01-10T10:22:58;0.50;99.90
7212;DHT22;3647;48.792;9.802;2024-01-10T10:25:29;0.60;99.90
7212;DHT22;3647;48.792;9.802;2024-01-10T10:27:57;0.50;99.90
7212;DHT22;3647;48.792;9.802;2024-01-10T10:30:23;0.50;99.90
7212;DHT22;3647;48.792;9.802;2024-01-10T10:32:51;0.50;99.90
7212;DHT22;3647;48.792;9.802;2024-01-10T10:35:18;0.80;99.90
7212;DHT22;3647;48.792;9.802;2024-01-10T10:37:46;0.70;99.90
7212;DHT22;3647;48.792;9.802;2024-01-10T10:40:13;0.90;99.90
7212;DHT22;3647;48.792;9.802;2024-01-10T10:42:44;1.00;99.90
7212;DHT22;3647;48.792;9.802;2024-01-10T10:45:14;1.10;99.90
7212;DHT22;3647;48.792;9.802;2024-01-10T10:47:43;1.20;99.90
7212;DHT22;3647;48.792;9.802;2024-01-10T10:50:13;1.10;99.90
7212;DHT22;3647;48.792;9.802;2024-01-10T10:52:42;1.20;99.90
7212;DHT22;3647;48.792;9.802;2024-01-10T10:55:11;1.30;99.90
7212;DHT22;3647;48.792;9.802;2024-01-10T10:57:42;1.30;99.90
7212;DHT22;3647;48.792;9.802;2024-01-10T11:00:11;1.10;99.90
7212;DHT22;3647;48.792;9.802;2024-01-10T11:02:41;1.10;99.90
7212;DHT22;3647;48.792;9.802;2024-01-10T11:05:08;1.00;99.90
7212;DHT22;3647;48.792;9.802;2024-01-10T11:07:35;1.20;99.90
7212;DHT22;3647;48.792;9.802;2024-01-10T11:10:03;1.30;99.90
7212;DHT22;3647;48.792;9.802;2024-01-10T11:12:50;1.50;99.90
7212;DHT22;3647;48.792;9.802;2024-01-10T11:15:30;1.40;99.90
7212;DHT22;3647;48.792;9.802;2024-01-10T11:18:27;1.50;99.90
7212;DHT22;3647;48.792;9.802;2024-01-10T11:21:11;1.50;99.90
7212;DHT22;3647;48.792;9.802;2024-01-10T11:23:42;1.70;99.90
7212;DHT22;3647;48.792;9.802;2024-01-10T11:26:10;1.80;99.90
7212;DHT22;3647;48.792;9.802;2024-01-10T11:28:40;1.90;99.90
7212;DHT22;3647;48.792;9.802;2024-01-10T11:31:07;2.00;99.90
7212;DHT22;3647;48.792;9.802;2024-01-10T11:33:35;2.10;99.90
7212;DHT22;3647;48.792;9.802;2024-01-10T11:36:15;2.20;99.90
7212;DHT22;3647;48.792;9.802;2024-01-10T11:38:44;2.00;99.90
7212;DHT22;3647;48.792;9.802;2024-01-10T11:41:11;2.20;99.90
7212;DHT22;3647;48.792;9.802;2024-01-10T11:43:40;2.30;99.90
7212;DHT22;3647;48.792;9.802;2024-01-10T11:46:06;2.40;99.90
7212;DHT22;3647;48.792;9.802;2024-01-10T11:48:34;2.40;99.90
7212;DHT22;3647;48.792;9.802;2024-01-10T11:51:04;2.40;99.90
7212;DHT22;3647;48.792;9.802;2024-01-10T11:53:44;2.40;99.90
7212;DHT22;3647;48.792;9.802;2024-01-10T11:56:14;2.40;99.90
7212;DHT22;3647;48.792;9.802;2024-01-10T11:59:01;2.50;99.90
7212;DHT22;3647;48.792;9.802;2024-01-10T12:01:29;2.60;99.90
7212;DHT22;3647;48.792;9.802;2024-01-10T12:03:57;2.60;99.90
7212;DHT22;3647;48.792;9.802;2024-01-10T12:06:25;2.60;99.90
7212;DHT22;3647;48.792;9.802;2024-01-10T12:08:52;2.60;99.90
7212;DHT22;3647;48.792;9.802;2024-01-10T12:11:19;3.00;99.90
7212;DHT22;3647;48.792;9.802;2024-01-10T12:13:46;2.50;99.90
7212;DHT22;3647;48.792;9.802;2024-01-10T12:16:14;2.50;99.90
7212;DHT22;3647;48.792;9.802;2024-01-10T12:18:42;2.70;99.90
7212;DHT22;3647;48.792;9.802;2024-01-10T12:21:09;2.70;99.90
7212;DHT22;3647;48.792;9.802;2024-01-10T12:23:36;2.70;99.90
7212;DHT22;3647;48.792;9.802;2024-01-10T12:26:05;3.00;99.90
7212;DHT22;3647;48.792;9.802;2024-01-10T12:28:33;2.80;99.90
7212;DHT22;3647;48.792;9.802;2024-01-10T12:31:00;2.80;99.90
7212;DHT22;3647;48.792;9.802;2024-01-10T12:33:29;3.00;99.90
7212;DHT22;3647;48.792;9.802;2024-01-10T12:36:06;2.90;99.90
7212;DHT22;3647;48.792;9.802;2024-01-10T12:38:34;2.90;99.90
7212;DHT22;3647;48.792;9.802;2024-01-10T12:41:00;3.40;99.90
7212;DHT22;3647;48.792;9.802;2024-01-10T12:43:27;3.00;99.90
7212;DHT22;3647;48.792;9.802;2024-01-10T12:46:08;3.00;99.90
7212;DHT22;3647;48.792;9.802;2024-01-10T12:48:38;3.00;99.90
7212;DHT22;3647;48.792;9.802;2024-01-10T12:51:07;3.00;99.90
7212;DHT22;3647;48.792;9.802;2024-01-10T12:53:34;3.10;99.90
7212;DHT22;3647;48.792;9.802;2024-01-10T12:56:02;3.10;99.90
7212;DHT22;3647;48.792;9.802;2024-01-10T12:58:28;3.00;99.90
7212;DHT22;3647;48.792;9.802;2024-01-10T13:00:55;3.00;99.90
7212;DHT22;3647;48.792;9.802;2024-01-10T13:03:22;3.00;99.90
7212;DHT22;3647;48.792;9.802;2024-01-10T13:05:51;2.90;99.90
7212;DHT22;3647;48.792;9.802;2024-01-10T13:08:18;3.00;99.90
7212;DHT22;3647;48.792;9.802;2024-01-10T13:10:45;3.00;99.90
7212;DHT22;3647;48.792;9.802;2024-01-10T13:13:13;3.10;99.90
7212;DHT22;3647;48.792;9.802;2024-01-10T13:15:39;3.10;99.90
7212;DHT22;3647;48.792;9.802;2024-01-10T13:18:08;3.90;99.90
7212;DHT22;3647;48.792;9.802;2024-01-10T13:20:35;3.10;99.90
7212;DHT22;3647;48.792;9.802;2024-01-10T13:23:03;3.10;99.90
7212;DHT22;3647;48.792;9.802;2024-01-10T13:25:30;2.80;99.90
7212;DHT22;3647;48.792;9.802;2024-01-10T13:27:57;2.80;99.90
7212;DHT22;3647;48.792;9.802;2024-01-10T13:30:24;2.70;99.90
7212;DHT22;3647;48.792;9.802;2024-01-10T13:32:50;2.80;99.90
7212;DHT22;3647;48.792;9.802;2024-01-10T13:35:17;2.80;99.90
7212;DHT22;3647;48.792;9.802;2024-01-10T13:37:45;5.20;99.90
7212;DHT22;3647;48.792;9.802;2024-01-10T13:40:13;2.90;99.90
7212;DHT22;3647;48.792;9.802;2024-01-10T13:42:40;2.90;99.90
7212;DHT22;3647;48.792;9.802;2024-01-10T13:45:07;2.90;99.90
7212;DHT22;3647;48.792;9.802;2024-01-10T13:47:36;2.90;99.90
7212;DHT22;3647;48.792;9.802;2024-01-10T13:50:04;3.00;99.90
7212;DHT22;3647;48.792;9.802;2024-01-10T13:52:31;3.00;99.90
7212;DHT22;3647;48.792;9.802;2024-01-10T13:54:58;3.00;99.90
7212;DHT22;3647;48.792;9.802;2024-01-10T13:57:26;2.90;99.90
7212;DHT22;3647;48.792;9.802;2024-01-10T13:59:53;3.00;99.90
7212;DHT22;3647;48.792;9.802;2024-01-10T14:02:21;3.00;99.90
7212;DHT22;3647;48.792;9.802;2024-01-10T14:04:48;3.10;99.90
7212;DHT22;3647;48.792;9.802;2024-01-10T14:07:15;3.00;99.90
7212;DHT22;3647;48.792;9.802;2024-01-10T14:09:41;3.00;99.90
7212;DHT22;3647;48.792;9.802;2024-01-10T14:12:08;2.90;99.90
7212;DHT22;3647;48.792;9.802;2024-01-10T14:14:37;2.90;99.90
7212;DHT22;3647;48.792;9.802;2024-01-10T14:17:05;2.80;99.90
7212;DHT22;3647;48.792;9.802;2024-01-10T14:19:31;2.80;99.90
7212;DHT22;3647;48.792;9.802;2024-01-10T14:21:58;3.90;99.90
7212;DHT22;3647;48.792;9.802;2024-01-10T14:24:25;2.70;99.90
7212;DHT22;3647;48.792;9.802;2024-01-10T14:26:52;2.60;99.90
7212;DHT22;3647;48.792;9.802;2024-01-10T14:29:20;2.50;99.90
7212;DHT22;3647;48.792;9.802;2024-01-10T14:31:49;2.90;99.90
7212;DHT22;3647;48.792;9.802;2024-01-10T14:34:15;2.30;99.90
7212;DHT22;3647;48.792;9.802;2024-01-10T14:36:42;2.30;99.90
7212;DHT22;3647;48.792;9.802;2024-01-10T14:39:09;2.40;99.90
7212;DHT22;3647;48.792;9.802;2024-01-10T14:44:05;2.20;99.90
7212;DHT22;3647;48.792;9.802;2024-01-10T14:46:32;2.30;99.90
7212;DHT22;3647;48.792;9.802;2024-01-10T14:49:00;2.30;99.90
7212;DHT22;3647;48.792;9.802;2024-01-10T14:53:54;2.00;99.90
7212;DHT22;3647;48.792;9.802;2024-01-10T14:56:21;2.10;99.90
7212;DHT22;3647;48.792;9.802;2024-01-10T14:58:48;2.10;99.90
7212;DHT22;3647;48.792;9.802;2024-01-10T15:01:16;2.00;99.90
7212;DHT22;3647;48.792;9.802;2024-01-10T15:03:43;1.90;99.90
7212;DHT22;3647;48.792;9.802;2024-01-10T15:06:11;2.00;99.90
7212;DHT22;3647;48.792;9.802;2024-01-10T15:08:40;1.90;99.90
7212;DHT22;3647;48.792;9.802;2024-01-10T15:13:36;1.70;99.90
7212;DHT22;3647;48.792;9.802;2024-01-10T15:16:03;1.70;99.90
7212;DHT22;3647;48.792;9.802;2024-01-10T15:18:30;1.70;99.90
7212;DHT22;3647;48.792;9.802;2024-01-10T15:20:58;1.70;99.90
7212;DHT22;3647;48.792;9.802;2024-01-10T15:23:26;1.70;99.90
7212;DHT22;3647;48.792;9.802;2024-01-10T15:25:53;1.60;99.90
7212;DHT22;3647;48.792;9.802;2024-01-10T15:30:47;1.60;99.90
7212;DHT22;3647;48.792;9.802;2024-01-10T15:33:14;1.50;99.90
7212;DHT22;3647;48.792;9.802;2024-01-10T15:35:41;1.50;99.90
7212;DHT22;3647;48.792;9.802;2024-01-10T15:38:08;1.50;99.90
7212;DHT22;3647;48.792;9.802;2024-01-10T15:40:36;1.40;99.90
7212;DHT22;3647;48.792;9.802;2024-01-10T15:43:03;1.30;99.90
7212;DHT22;3647;48.792;9.802;2024-01-10T15:45:29;1.30;99.90
7212;DHT22;3647;48.792;9.802;2024-01-10T15:47:57;1.20;99.90
7212;DHT22;3647;48.792;9.802;2024-01-10T15:52:50;1.10;99.90
7212;DHT22;3647;48.792;9.802;2024-01-10T15:55:17;1.00;99.90
7212;DHT22;3647;48.792;9.802;2024-01-10T15:57:46;1.00;99.90
7212;DHT22;3647;48.792;9.802;2024-01-10T16:00:13;0.90;99.90
7212;DHT22;3647;48.792;9.802;2024-01-10T16:02:41;0.90;99.90
7212;DHT22;3647;48.792;9.802;2024-01-10T16:05:08;0.80;99.90
7212;DHT22;3647;48.792;9.802;2024-01-10T16:07:35;0.70;99.90
7212;DHT22;3647;48.792;9.802;2024-01-10T16:12:29;0.60;99.90
7212;DHT22;3647;48.792;9.802;2024-01-10T16:14:57;0.60;99.90
7212;DHT22;3647;48.792;9.802;2024-01-10T16:19:51;0.50;99.90
7212;DHT22;3647;48.792;9.802;2024-01-10T16:22:18;0.40;99.90
7212;DHT22;3647;48.792;9.802;2024-01-10T16:24:45;0.50;99.90
7212;DHT22;3647;48.792;9.802;2024-01-10T16:27:12;0.50;99.90
7212;DHT22;3647;48.792;9.802;2024-01-10T16:29:38;0.40;99.90
7212;DHT22;3647;48.792;9.802;2024-01-10T16:32:07;0.30;99.90
7212;DHT22;3647;48.792;9.802;2024-01-10T16:34:33;0.30;99.90
7212;DHT22;3647;48.792;9.802;2024-01-10T16:37:01;0.30;99.90
7212;DHT22;3647;48.792;9.802;2024-01-10T16:41:56;0.20;99.90
7212;DHT22;3647;48.792;9.802;2024-01-10T16:44:23;0.10;99.90
7212;DHT22;3647;48.792;9.802;2024-01-10T16:46:49;0.20;99.90
7212;DHT22;3647;48.792;9.802;2024-01-10T16:49:17;0.10;99.90
7212;DHT22;3647;48.792;9.802;2024-01-10T16:51:44;0.10;99.90
7212;DHT22;3647;48.792;9.802;2024-01-10T16:59:05;0.00;99.90
7212;DHT22;3647;48.792;9.802;2024-01-10T17:06:28;-0.10;99.90
7212;DHT22;3647;48.792;9.802;2024-01-10T17:08:54;-0.10;99.90
7212;DHT22;3647;48.792;9.802;2024-01-10T17:11:21;-0.10;99.90
7212;DHT22;3647;48.792;9.802;2024-01-10T17:21:09;-0.20;99.90
7212;DHT22;3647;48.792;9.802;2024-01-10T17:23:37;-0.40;99.90
7212;DHT22;3647;48.792;9.802;2024-01-10T17:26:04;-0.50;99.90
7212;DHT22;3647;48.792;9.802;2024-01-10T17:28:31;-0.30;99.90
7212;DHT22;3647;48.792;9.802;2024-01-10T17:40:48;-0.40;99.90
7212;DHT22;3647;48.792;9.802;2024-01-10T17:43:17;-0.40;99.90
7212;DHT22;3647;48.792;9.802;2024-01-10T17:53:05;-0.60;99.90
7212;DHT22;3647;48.792;9.802;2024-01-10T17:55:32;-0.60;99.90
7212;DHT22;3647;48.792;9.802;2024-01-10T17:58:00;-0.60;99.90
7212;DHT22;3647;48.792;9.802;2024-01-10T18:00:27;-0.70;99.90
7212;DHT22;3647;48.792;9.802;2024-01-10T18:02:54;-0.70;99.90
7212;DHT22;3647;48.792;9.802;2024-01-10T18:07:49;-0.70;99.90
7212;DHT22;3647;48.792;9.802;2024-01-10T18:10:16;-0.80;99.90
7212;DHT22;3647;48.792;9.802;2024-01-10T18:12:43;-0.80;99.90
7212;DHT22;3647;48.792;9.802;2024-01-10T18:15:11;-0.70;99.90
7212;DHT22;3647;48.792;9.802;2024-01-10T18:17:38;-0.70;99.90
7212;DHT22;3647;48.792;9.802;2024-01-10T18:20:06;-0.70;99.90
7212;DHT22;3647;48.792;9.802;2024-01-10T18:22:34;-0.70;99.90
7212;DHT22;3647;48.792;9.802;2024-01-10T18:25:01;-0.80;99.90
7212;DHT22;3647;48.792;9.802;2024-01-10T18:27:27;-0.80;99.90
7212;DHT22;3647;48.792;9.802;2024-01-10T18:29:54;-0.80;99.90
7212;DHT22;3647;48.792;9.802;2024-01-10T18:32:22;-0.80;99.90
7212;DHT22;3647;48.792;9.802;2024-01-10T18:34:49;-0.80;99.90
7212;DHT22;3647;48.792;9.802;2024-01-10T18:37:16;-0.80;99.90
7212;DHT22;3647;48.792;9.802;2024-01-10T18:39:43;-1.00;99.90
7212;DHT22;3647;48.792;9.802;2024-01-10T18:42:10;0.20;99.90
7212;DHT22;3647;48.792;9.802;2024-01-10T18:44:37;-0.80;99.90
7212;DHT22;3647;48.792;9.802;2024-01-10T18:47:04;-0.90;99.90
7212;DHT22;3647;48.792;9.802;2024-01-10T18:49:34;-0.90;99.90
7212;DHT22;3647;48.792;9.802;2024-01-10T18:54:29;-1.00;99.90
7212;DHT22;3647;48.792;9.802;2024-01-10T18:56:58;-0.90;99.90
7212;DHT22;3647;48.792;9.802;2024-01-10T18:59:25;-0.80;99.90
7212;DHT22;3647;48.792;9.802;2024-01-10T19:01:52;-1.00;99.90
7212;DHT22;3647;48.792;9.802;2024-01-10T19:04:19;-1.00;99.90
7212;DHT22;3647;48.792;9.802;2024-01-10T19:06:47;-1.10;99.90
7212;DHT22;3647;48.792;9.802;2024-01-10T19:09:18;-1.00;99.90
7212;DHT22;3647;48.792;9.802;2024-01-10T19:11:45;-1.10;99.90
7212;DHT22;3647;48.792;9.802;2024-01-10T19:14:12;-1.20;99.90
7212;DHT22;3647;48.792;9.802;2024-01-10T19:16:39;-1.10;99.90
7212;DHT22;3647;48.792;9.802;2024-01-10T19:19:10;-1.10;99.90
7212;DHT22;3647;48.792;9.802;2024-01-10T19:21:37;-1.10;99.90
7212;DHT22;3647;48.792;9.802;2024-01-10T19:24:06;-1.10;99.90
7212;DHT22;3647;48.792;9.802;2024-01-10T19:26:32;-1.10;99.90
7212;DHT22;3647;48.792;9.802;2024-01-10T19:28:59;-1.20;99.90
7212;DHT22;3647;48.792;9.802;2024-01-10T19:31:26;-1.20;99.90
7212;DHT22;3647;48.792;9.802;2024-01-10T19:33:53;-1.30;99.90
7212;DHT22;3647;48.792;9.802;2024-01-10T19:36:20;-1.40;99.90
7212;DHT22;3647;48.792;9.802;2024-01-10T19:41:21;-1.20;99.90
7212;DHT22;3647;48.792;9.802;2024-01-10T19:43:48;-1.40;99.90
7212;DHT22;3647;48.792;9.802;2024-01-10T19:46:16;-1.40;99.90
7212;DHT22;3647;48.792;9.802;2024-01-10T19:48:44;-1.40;99.90
7212;DHT22;3647;48.792;9.802;2024-01-10T19:51:11;-1.40;99.90
7212;DHT22;3647;48.792;9.802;2024-01-10T19:53:38;-1.40;99.90
7212;DHT22;3647;48.792;9.802;2024-01-10T19:56:05;-1.50;99.90
7212;DHT22;3647;48.792;9.802;2024-01-10T19:58:33;-1.50;99.90
7212;DHT22;3647;48.792;9.802;2024-01-10T20:01:00;-1.50;99.90
7212;DHT22;3647;48.792;9.802;2024-01-10T20:03:28;-1.60;99.90
7212;DHT22;3647;48.792;9.802;2024-01-10T20:05:54;-1.50;99.90
7212;DHT22;3647;48.792;9.802;2024-01-10T20:08:21;-1.40;99.90
7212;DHT22;3647;48.792;9.802;2024-01-10T20:13:15;-1.60;99.90
7212;DHT22;3647;48.792;9.802;2024-01-10T20:15:44;-1.80;99.90
7212;DHT22;3647;48.792;9.802;2024-01-10T20:18:11;-1.70;99.90
7212;DHT22;3647;48.792;9.802;2024-01-10T20:20:38;-1.80;99.90
7212;DHT22;3647;48.792;9.802;2024-01-10T20:23:05;-1.70;99.90
7212;DHT22;3647;48.792;9.802;2024-01-10T20:27:59;-1.70;99.90
7212;DHT22;3647;48.792;9.802;2024-01-10T20:32:55;-1.80;99.90
7212;DHT22;3647;48.792;9.802;2024-01-10T20:35:23;-2.00;99.90
7212;DHT22;3647;48.792;9.802;2024-01-10T20:37:50;-1.90;99.90
7212;DHT22;3647;48.792;9.802;2024-01-10T20:40:16;-1.80;99.90
7212;DHT22;3647;48.792;9.802;2024-01-10T20:42:43;-1.80;99.90
7212;DHT22;3647;48.792;9.802;2024-01-10T20:45:10;-1.80;99.90
7212;DHT22;3647;48.792;9.802;2024-01-10T20:47:42;-1.70;99.90
7212;DHT22;3647;48.792;9.802;2024-01-10T20:50:11;-1.80;99.90
7212;DHT22;3647;48.792;9.802;2024-01-10T20:52:37;-1.80;99.90
7212;DHT22;3647;48.792;9.802;2024-01-10T20:55:05;-1.90;99.90
7212;DHT22;3647;48.792;9.802;2024-01-10T20:59:59;-1.80;99.90
7212;DHT22;3647;48.792;9.802;2024-01-10T21:02:29;-1.80;99.90
7212;DHT22;3647;48.792;9.802;2024-01-10T21:07:25;-1.80;99.90
7212;DHT22;3647;48.792;9.802;2024-01-10T21:09:52;-1.90;99.90
7212;DHT22;3647;48.792;9.802;2024-01-10T21:17:16;-2.10;99.90
7212;DHT22;3647;48.792;9.802;2024-01-10T21:22:10;-2.00;99.90
7212;DHT22;3647;48.792;9.802;2024-01-10T21:24:40;-2.20;99.90
7212;DHT22;3647;48.792;9.802;2024-01-10T21:27:07;-2.20;99.90
7212;DHT22;3647;48.792;9.802;2024-01-10T21:39:23;-1.90;99.90
7212;DHT22;3647;48.792;9.802;2024-01-10T21:41:51;-2.30;99.90
7212;DHT22;3647;48.792;9.802;2024-01-10T21:46:47;-2.30;99.90
7212;DHT22;3647;48.792;9.802;2024-01-10T21:51:41;-2.20;99.90
7212;DHT22;3647;48.792;9.802;2024-01-10T21:56:35;-2.40;99.90
7212;DHT22;3647;48.792;9.802;2024-01-10T21:59:03;-2.40;99.90
7212;DHT22;3647;48.792;9.802;2024-01-10T22:03:56;-2.40;99.90
7212;DHT22;3647;48.792;9.802;2024-01-10T22:16:15;-2.40;99.90
7212;DHT22;3647;48.792;9.802;2024-01-10T22:21:09;-2.40;99.90
